createdAt,value
2018-05-23T00:01:41.869Z,14.79
2018-05-23T00:04:08.151Z,14.80
2018-05-23T00:06:34.457Z,14.74
2018-05-23T00:09:00.675Z,14.75
2018-05-23T00:11:29.075Z,14.82
2018-05-23T00:13:55.341Z,14.81
2018-05-23T00:16:21.613Z,14.80
2018-05-23T00:18:48.654Z,14.76
2018-05-23T00:21:14.889Z,14.86
2018-05-23T00:23:41.169Z,14.84
2018-05-23T00:26:07.421Z,14.81
2018-05-23T00:28:33.653Z,14.82
2018-05-23T00:30:59.909Z,14.83
2018-05-23T00:33:26.166Z,14.73
2018-05-23T00:35:52.449Z,14.74
2018-05-23T00:38:18.728Z,14.67
2018-05-23T00:40:44.985Z,14.72
2018-05-23T00:43:11.289Z,14.70
2018-05-23T00:45:37.529Z,14.61
2018-05-23T00:48:03.835Z,14.59
2018-05-23T00:50:30.123Z,14.55
2018-05-23T00:52:59.715Z,14.59
2018-05-23T00:55:33.360Z,14.55
2018-05-23T00:58:00.362Z,14.50
2018-05-23T01:00:26.679Z,14.44
2018-05-23T01:02:52.957Z,14.50
2018-05-23T01:05:19.233Z,14.40
2018-05-23T01:07:45.495Z,14.44
2018-05-23T01:10:11.814Z,14.33
2018-05-23T01:12:38.118Z,14.34
2018-05-23T01:15:05.085Z,14.37
2018-05-23T01:17:32.096Z,14.36
2018-05-23T01:19:58.361Z,14.36
2018-05-23T01:22:25.381Z,14.26
2018-05-23T01:24:51.613Z,14.33
2018-05-23T01:27:17.909Z,14.27
2018-05-23T01:29:44.161Z,14.34
2018-05-23T01:32:10.446Z,14.38
2018-05-23T01:34:36.731Z,14.35
2018-05-23T01:37:03.013Z,14.29
2018-05-23T01:39:29.322Z,14.28
2018-05-23T01:41:55.581Z,14.24
2018-05-23T01:44:21.839Z,14.30
2018-05-23T01:46:48.842Z,14.35
2018-05-23T01:49:25.297Z,14.40
2018-05-23T01:51:51.561Z,14.34
2018-05-23T01:54:17.844Z,14.28
2018-05-23T01:56:44.145Z,14.27
2018-05-23T01:59:10.442Z,14.30
2018-05-23T02:01:36.697Z,14.24
2018-05-23T02:04:02.957Z,14.28
2018-05-23T02:06:29.232Z,14.29
2018-05-23T02:08:55.477Z,14.29
2018-05-23T02:11:21.759Z,14.40
2018-05-23T02:13:47.989Z,14.33
2018-05-23T02:16:14.265Z,14.31
2018-05-23T02:18:40.505Z,14.32
2018-05-23T02:21:06.769Z,14.29
2018-05-23T02:23:33.025Z,14.31
2018-05-23T02:25:59.308Z,14.29
2018-05-23T02:28:25.557Z,14.34
2018-05-23T02:30:51.842Z,14.33
2018-05-23T02:33:18.101Z,14.34
2018-05-23T02:35:45.081Z,14.34
2018-05-23T02:38:11.345Z,14.33
2018-05-23T02:40:37.598Z,14.36
2018-05-23T02:43:03.885Z,14.36
2018-05-23T02:45:30.178Z,14.39
2018-05-23T02:47:56.473Z,14.36
2018-05-23T02:50:22.742Z,14.41
2018-05-23T02:52:49.013Z,14.36
2018-05-23T02:55:15.269Z,14.47
2018-05-23T02:57:41.554Z,14.47
2018-05-23T03:00:07.845Z,14.48
2018-05-23T03:02:34.105Z,14.47
2018-05-23T03:05:00.341Z,14.45
2018-05-23T03:07:26.589Z,14.48
2018-05-23T03:09:52.861Z,14.55
2018-05-23T03:12:19.081Z,14.60
2018-05-23T03:14:46.130Z,14.62
2018-05-23T03:17:13.181Z,14.59
2018-05-23T03:19:40.190Z,14.56
2018-05-23T03:22:06.541Z,14.67
2018-05-23T03:24:32.762Z,14.63
2018-05-23T03:26:59.001Z,14.64
2018-05-23T03:29:25.310Z,14.69
2018-05-23T03:31:51.561Z,14.69
2018-05-23T03:34:17.818Z,14.72
2018-05-23T03:36:44.057Z,14.74
2018-05-23T03:39:10.337Z,14.79
2018-05-23T03:41:36.591Z,14.80
2018-05-23T03:44:02.914Z,14.82
2018-05-23T03:46:29.187Z,14.85
2018-05-23T03:48:55.495Z,14.91
2018-05-23T03:51:21.837Z,14.93
2018-05-23T03:53:48.163Z,14.99
2018-05-23T03:56:14.472Z,15.02
2018-05-23T03:58:41.458Z,15.05
2018-05-23T04:01:26.301Z,15.08
2018-05-23T04:04:11.841Z,15.07
2018-05-23T04:06:56.577Z,15.10
2018-05-23T04:09:22.869Z,15.10
2018-05-23T04:11:49.945Z,15.09
2018-05-23T04:14:16.222Z,15.13
2018-05-23T04:16:42.496Z,15.10
2018-05-23T04:19:09.485Z,15.13
2018-05-23T04:21:35.758Z,15.15
2018-05-23T04:24:02.089Z,15.19
2018-05-23T04:26:28.329Z,15.21
2018-05-23T04:28:55.377Z,15.22
2018-05-23T04:31:21.667Z,15.24
2018-05-23T04:33:48.706Z,15.24
2018-05-23T04:36:15.133Z,15.28
2018-05-23T04:38:42.130Z,15.33
2018-05-23T04:41:08.393Z,15.32
2018-05-23T04:43:35.405Z,15.36
2018-05-23T04:46:01.742Z,15.39
2018-05-23T04:48:28.073Z,15.38
2018-05-23T04:50:54.337Z,15.44
2018-05-23T04:53:20.641Z,15.49
2018-05-23T04:55:46.929Z,15.59
2018-05-23T04:58:13.203Z,15.62
2018-05-23T05:00:39.465Z,15.71
2018-05-23T05:03:05.728Z,15.70
2018-05-23T05:05:32.018Z,15.78
2018-05-23T05:07:58.321Z,15.88
2018-05-23T05:10:25.346Z,15.91
2018-05-23T05:12:51.606Z,15.97
2018-05-23T05:15:18.613Z,15.96
2018-05-23T05:17:44.864Z,15.97
2018-05-23T05:20:11.158Z,16.04
2018-05-23T05:22:37.477Z,16.06
2018-05-23T05:25:08.323Z,16.15
2018-05-23T05:27:35.580Z,16.21
2018-05-23T05:30:02.609Z,16.17
2018-05-23T05:32:28.851Z,16.25
2018-05-23T05:34:55.883Z,16.25
2018-05-23T05:37:22.159Z,16.33
2018-05-23T05:39:48.505Z,16.31
2018-05-23T05:42:14.730Z,16.34
2018-05-23T05:44:43.121Z,16.34
2018-05-23T05:47:09.381Z,16.31
2018-05-23T05:49:35.664Z,16.34
2018-05-23T05:52:02.733Z,16.42
2018-05-23T05:54:29.757Z,16.43
2018-05-23T05:56:56.172Z,16.47
2018-05-23T05:59:22.431Z,16.49
2018-05-23T06:01:48.742Z,16.48
2018-05-23T06:04:15.568Z,16.48
2018-05-23T06:06:41.893Z,16.52
2018-05-23T06:09:08.170Z,16.61
2018-05-23T06:11:34.437Z,16.64
2018-05-23T06:14:01.457Z,16.69
2018-05-23T06:16:27.727Z,16.75
2018-05-23T06:18:54.005Z,16.81
2018-05-23T06:21:20.341Z,16.84
2018-05-23T06:23:46.605Z,16.91
2018-05-23T06:26:12.907Z,16.97
2018-05-23T06:28:39.194Z,17.04
2018-05-23T06:31:05.462Z,17.11
2018-05-23T06:33:32.494Z,17.21
2018-05-23T06:35:58.757Z,17.27
2018-05-23T06:38:25.014Z,17.37
2018-05-23T06:40:51.269Z,17.51
2018-05-23T06:43:17.548Z,17.61
2018-05-23T06:45:44.515Z,17.75
2018-05-23T06:48:10.790Z,17.89
2018-05-23T06:50:37.085Z,17.96
2018-05-23T06:53:03.309Z,18.03
2018-05-23T06:55:30.345Z,18.07
2018-05-23T06:57:56.626Z,18.15
2018-05-23T07:00:22.939Z,18.18
2018-05-23T07:02:49.224Z,18.21
2018-05-23T07:05:15.493Z,18.26
2018-05-23T07:07:41.731Z,18.26
2018-05-23T07:10:08.761Z,18.21
2018-05-23T07:12:35.013Z,18.09
2018-05-23T07:15:01.322Z,18.04
2018-05-23T07:17:27.570Z,17.91
2018-05-23T07:19:53.807Z,17.80
2018-05-23T07:22:20.063Z,17.76
2018-05-23T07:24:47.113Z,17.70
2018-05-23T07:27:13.415Z,17.66
2018-05-23T07:29:39.653Z,17.58
2018-05-23T07:32:05.914Z,17.54
2018-05-23T07:34:32.937Z,17.48
2018-05-23T07:36:59.205Z,17.48
2018-05-23T07:39:25.453Z,17.45
2018-05-23T07:41:52.508Z,17.45
2018-05-23T07:44:18.769Z,17.45
2018-05-23T07:46:45.134Z,17.49
2018-05-23T07:49:11.397Z,17.49
2018-05-23T07:51:37.679Z,17.50
2018-05-23T07:54:03.917Z,17.61
2018-05-23T07:56:30.182Z,17.70
2018-05-23T07:58:56.480Z,17.71
2018-05-23T08:01:22.746Z,17.79
2018-05-23T08:03:48.997Z,17.84
2018-05-23T08:06:15.230Z,17.89
2018-05-23T08:08:41.486Z,18.00
2018-05-23T08:11:08.495Z,18.02
2018-05-23T08:13:34.777Z,18.06
2018-05-23T08:16:01.790Z,18.18
2018-05-23T08:18:28.117Z,18.26
2018-05-23T08:20:54.361Z,18.43
2018-05-23T08:23:20.645Z,18.57
2018-05-23T08:25:47.653Z,18.74
2018-05-23T08:28:13.909Z,18.93
2018-05-23T08:30:40.224Z,19.04
2018-05-23T08:33:06.521Z,19.24
2018-05-23T08:35:32.821Z,19.49
2018-05-23T08:37:59.105Z,19.81
2018-05-23T08:40:25.340Z,20.07
2018-05-23T08:42:51.614Z,20.34
2018-05-23T08:45:17.872Z,20.44
2018-05-23T08:47:44.918Z,20.72
2018-05-23T08:50:11.237Z,20.89
2018-05-23T08:52:38.768Z,21.25
2018-05-23T08:55:05.989Z,21.51
2018-05-23T08:57:33.021Z,21.69
2018-05-23T08:59:59.364Z,21.95
2018-05-23T09:02:25.630Z,22.18
2018-05-23T09:04:52.015Z,22.60
2018-05-23T09:07:18.962Z,22.74
2018-05-23T09:09:45.273Z,22.85
2018-05-23T09:12:11.629Z,22.97
2018-05-23T09:14:37.946Z,23.34
2018-05-23T09:17:04.260Z,23.35
2018-05-23T09:19:31.273Z,23.64
2018-05-23T09:21:57.557Z,23.81
2018-05-23T09:24:23.788Z,23.76
2018-05-23T09:26:50.083Z,23.97
2018-05-23T09:29:16.375Z,24.04
2018-05-23T09:31:42.661Z,24.14
2018-05-23T09:34:08.949Z,24.20
2018-05-23T09:36:35.242Z,24.15
2018-05-23T09:39:01.546Z,24.26
2018-05-23T09:41:27.865Z,24.39
2018-05-23T09:43:54.117Z,24.49
2018-05-23T09:46:20.403Z,24.70
2018-05-23T09:48:46.687Z,25.06
2018-05-23T09:51:12.993Z,25.22
2018-05-23T09:53:39.286Z,25.76
2018-05-23T09:56:05.550Z,26.34
2018-05-23T09:58:32.630Z,26.60
2018-05-23T10:00:58.933Z,27.01
2018-05-23T10:03:25.964Z,27.72
2018-05-23T10:05:52.284Z,27.77
2018-05-23T10:08:18.544Z,28.06
2018-05-23T10:10:45.573Z,28.75
2018-05-23T10:13:11.878Z,28.64
2018-05-23T10:15:38.126Z,29.18
2018-05-23T10:18:04.370Z,29.59
2018-05-23T10:20:30.633Z,30.04
2018-05-23T10:22:56.901Z,30.18
2018-05-23T10:25:23.920Z,30.48
2018-05-23T10:27:50.170Z,30.91
2018-05-23T10:30:17.196Z,31.13
2018-05-23T10:32:43.421Z,31.53
2018-05-23T10:35:09.674Z,31.86
2018-05-23T10:37:35.957Z,32.44
2018-05-23T10:40:02.237Z,32.98
2018-05-23T10:42:28.502Z,33.12
2018-05-23T10:44:55.562Z,33.42
2018-05-23T10:47:22.606Z,33.82
2018-05-23T10:49:48.881Z,34.19
2018-05-23T10:52:15.141Z,33.94
2018-05-23T10:54:41.410Z,33.94
2018-05-23T10:57:07.760Z,34.16
2018-05-23T10:59:33.989Z,34.08
2018-05-23T11:02:01.035Z,34.22
2018-05-23T11:04:27.269Z,34.03
2018-05-23T11:06:53.574Z,34.10
2018-05-23T11:09:19.868Z,34.65
2018-05-23T11:11:46.840Z,34.70
2018-05-23T11:14:13.093Z,35.03
2018-05-23T11:16:39.349Z,34.81
2018-05-23T11:19:05.628Z,35.13
2018-05-23T11:21:31.901Z,35.73
2018-05-23T11:23:58.239Z,36.06
2018-05-23T11:26:24.542Z,35.99
2018-05-23T11:28:50.837Z,36.39
2018-05-23T11:31:17.104Z,36.21
2018-05-23T11:33:43.378Z,36.09
2018-05-23T11:36:09.712Z,36.26
2018-05-23T11:38:35.985Z,36.02
2018-05-23T11:41:02.241Z,35.82
2018-05-23T11:43:29.272Z,35.65
2018-05-23T11:45:55.565Z,35.57
2018-05-23T11:48:21.832Z,35.68
2018-05-23T11:50:48.155Z,35.19
2018-05-23T11:53:14.674Z,35.44
2018-05-23T11:55:40.954Z,35.51
2018-05-23T11:58:07.227Z,35.27
2018-05-23T12:00:33.524Z,35.17
2018-05-23T12:02:59.793Z,34.95
2018-05-23T12:05:26.798Z,35.45
2018-05-23T12:07:53.055Z,35.50
2018-05-23T12:10:19.444Z,35.29
2018-05-23T12:12:45.692Z,35.37
2018-05-23T12:15:11.953Z,35.58
2018-05-23T12:17:38.257Z,35.53
2018-05-23T12:20:04.575Z,36.01
2018-05-23T12:22:30.856Z,35.79
2018-05-23T12:24:57.168Z,35.92
2018-05-23T12:27:23.525Z,35.92
2018-05-23T12:29:49.740Z,36.26
2018-05-23T12:32:15.997Z,36.16
2018-05-23T12:34:42.257Z,36.14
2018-05-23T12:37:09.332Z,36.24
2018-05-23T12:39:35.660Z,36.11
2018-05-23T12:42:02.711Z,35.98
2018-05-23T12:44:29.693Z,35.78
2018-05-23T12:46:55.962Z,36.06
2018-05-23T12:49:22.255Z,36.19
2018-05-23T12:51:48.513Z,36.14
2018-05-23T12:54:14.829Z,35.89
2018-05-23T12:56:41.141Z,35.72
2018-05-23T12:59:08.151Z,35.04
2018-05-23T13:01:34.443Z,34.71
2018-05-23T13:04:00.702Z,34.39
2018-05-23T13:06:26.977Z,34.08
2018-05-23T13:08:53.238Z,33.62
2018-05-23T13:11:20.301Z,33.17
2018-05-23T13:13:47.273Z,32.78
2018-05-23T13:16:13.533Z,32.42
2018-05-23T13:18:39.820Z,32.19
2018-05-23T13:21:06.889Z,31.87
2018-05-23T13:23:33.161Z,31.34
2018-05-23T13:25:59.486Z,31.13
2018-05-23T13:28:25.713Z,30.99
2018-05-23T13:30:52.041Z,30.82
2018-05-23T13:33:18.385Z,30.61
2018-05-23T13:35:44.689Z,30.39
2018-05-23T13:38:11.702Z,30.12
2018-05-23T13:40:37.989Z,29.96
2018-05-23T13:43:05.032Z,29.75
2018-05-23T13:45:31.309Z,29.53
2018-05-23T13:47:57.601Z,29.44
2018-05-23T13:50:24.669Z,29.32
2018-05-23T13:52:50.964Z,28.96
2018-05-23T13:55:17.292Z,28.91
2018-05-23T13:57:43.568Z,28.99
2018-05-23T14:00:09.881Z,28.99
2018-05-23T14:02:36.131Z,28.84
2018-05-23T14:05:02.437Z,28.84
2018-05-23T14:07:28.732Z,28.94
2018-05-23T14:09:55.006Z,28.80
2018-05-23T14:12:21.329Z,28.66
2018-05-23T14:14:47.613Z,28.50
2018-05-23T14:17:14.644Z,28.33
2018-05-23T14:19:40.885Z,27.77
2018-05-23T14:22:07.166Z,27.30
2018-05-23T14:24:33.474Z,26.83
2018-05-23T14:27:00.502Z,26.35
2018-05-23T14:29:26.789Z,25.79
2018-05-23T14:31:53.053Z,25.34
2018-05-23T14:34:19.328Z,24.76
2018-05-23T14:36:46.396Z,24.29
2018-05-23T14:39:12.730Z,23.92
2018-05-23T14:41:39.716Z,23.66
2018-05-23T14:44:06.041Z,23.25
2018-05-23T14:46:32.348Z,22.85
2018-05-23T14:48:59.353Z,22.77
2018-05-23T14:51:25.631Z,22.44
2018-05-23T14:53:52.684Z,22.13
2018-05-23T14:56:19.783Z,21.87
2018-05-23T14:58:46.001Z,21.56
2018-05-23T15:01:12.301Z,21.33
2018-05-23T15:03:39.302Z,21.21
2018-05-23T15:06:05.572Z,20.90
2018-05-23T15:08:31.901Z,20.75
2018-05-23T15:10:58.173Z,20.79
2018-05-23T15:13:25.209Z,20.52
2018-05-23T15:15:51.481Z,20.46
2018-05-23T15:18:17.774Z,20.50
2018-05-23T15:20:44.060Z,20.31
2018-05-23T15:23:10.297Z,20.13
2018-05-23T15:25:36.537Z,20.04
2018-05-23T15:28:02.821Z,19.93
2018-05-23T15:30:29.115Z,19.87
2018-05-23T15:32:55.376Z,19.73
2018-05-23T15:35:21.625Z,19.63
2018-05-23T15:37:47.978Z,19.68
2018-05-23T15:40:14.982Z,19.59
2018-05-23T15:42:41.279Z,19.55
2018-05-23T15:45:07.613Z,19.39
2018-05-23T15:47:34.625Z,19.36
2018-05-23T15:50:00.895Z,19.38
2018-05-23T15:52:27.940Z,19.37
2018-05-23T15:54:54.896Z,19.30
2018-05-23T15:57:21.885Z,19.22
2018-05-23T15:59:48.146Z,19.28
2018-05-23T16:02:14.428Z,19.27
2018-05-23T16:04:41.385Z,19.25
2018-05-23T16:07:07.692Z,19.22
2018-05-23T16:09:33.967Z,19.28
2018-05-23T16:12:00.265Z,19.07
2018-05-23T16:14:26.529Z,19.12
2018-05-23T16:16:52.788Z,19.04
2018-05-23T16:19:19.046Z,19.04
2018-05-23T16:21:45.321Z,19.08
2018-05-23T16:24:12.331Z,19.09
2018-05-23T16:26:38.569Z,19.09
2018-05-23T16:29:04.851Z,19.11
2018-05-23T16:31:31.861Z,19.09
2018-05-23T16:33:58.140Z,19.07
2018-05-23T16:36:25.141Z,18.96
2018-05-23T16:38:51.400Z,18.95
2018-05-23T16:41:17.640Z,18.90
2018-05-23T16:43:43.868Z,18.98
2018-05-23T16:46:10.166Z,18.93
2018-05-23T16:48:36.458Z,18.85
2018-05-23T16:51:06.544Z,18.75
2018-05-23T16:53:32.947Z,18.72
2018-05-23T16:55:59.226Z,18.64
2018-05-23T16:58:25.520Z,18.67
2018-05-23T17:00:51.812Z,18.65
2018-05-23T17:03:18.077Z,18.62
2018-05-23T17:05:45.119Z,18.64
2018-05-23T17:08:12.093Z,18.74
2018-05-23T17:10:38.385Z,18.75
2018-05-23T17:13:04.686Z,18.79
2018-05-23T17:15:30.985Z,18.84
2018-05-23T17:17:58.002Z,18.80
2018-05-23T17:20:24.277Z,18.82
2018-05-23T17:22:51.309Z,18.84
2018-05-23T17:25:17.587Z,18.87
2018-05-23T17:27:43.890Z,18.87
2018-05-23T17:30:10.885Z,18.90
2018-05-23T17:32:39.139Z,18.84
2018-05-23T17:35:05.698Z,18.77
2018-05-23T17:37:32.033Z,18.81
2018-05-23T17:39:58.349Z,18.83
2018-05-23T17:42:25.318Z,18.79
2018-05-23T17:44:51.582Z,18.76
2018-05-23T17:47:18.191Z,18.84
2018-05-23T17:49:44.496Z,18.81
2018-05-23T17:52:10.818Z,18.79
2018-05-23T17:54:37.064Z,18.84
2018-05-23T17:57:03.980Z,18.83
2018-05-23T17:59:30.221Z,18.87
2018-05-23T18:01:56.531Z,18.87
2018-05-23T18:04:22.769Z,18.95
2018-05-23T18:06:49.046Z,18.99
2018-05-23T18:09:15.358Z,18.98
2018-05-23T18:11:41.605Z,18.95
2018-05-23T18:14:07.908Z,19.03
2018-05-23T18:16:34.177Z,19.00
2018-05-23T18:19:00.448Z,19.06
2018-05-23T18:21:27.484Z,19.06
2018-05-23T18:23:53.766Z,19.06
2018-05-23T18:26:20.026Z,19.02
2018-05-23T18:28:46.301Z,19.01
2018-05-23T18:31:13.342Z,18.99
2018-05-23T18:33:40.350Z,18.96
2018-05-23T18:36:06.674Z,18.96
2018-05-23T18:38:32.996Z,18.90
2018-05-23T18:40:59.997Z,18.92
2018-05-23T18:43:26.340Z,18.86
2018-05-23T18:45:52.558Z,18.78
2018-05-23T18:48:18.781Z,18.74
2018-05-23T18:50:45.082Z,18.67
2018-05-23T18:53:12.118Z,18.65
2018-05-23T18:55:38.446Z,18.61
2018-05-23T18:58:05.455Z,18.60
2018-05-23T19:00:31.793Z,18.57
2018-05-23T19:02:58.118Z,18.57
2018-05-23T19:05:24.419Z,18.52
2018-05-23T19:07:50.683Z,18.42
2018-05-23T19:10:16.941Z,18.40
2018-05-23T19:12:43.285Z,18.41
2018-05-23T19:15:09.641Z,18.35
2018-05-23T19:17:35.949Z,18.26
2018-05-23T19:20:02.299Z,18.17
2018-05-23T19:22:29.345Z,18.17
2018-05-23T19:24:55.640Z,18.07
2018-05-23T19:27:22.690Z,18.03
2018-05-23T19:29:49.730Z,17.91
2018-05-23T19:32:15.975Z,17.91
2018-05-23T19:34:43.918Z,17.87
2018-05-23T19:37:10.146Z,17.83
2018-05-23T19:39:36.465Z,17.68
2018-05-23T19:42:02.763Z,17.73
2018-05-23T19:44:29.798Z,17.66
2018-05-23T19:46:56.077Z,17.59
2018-05-23T19:49:22.362Z,17.43
2018-05-23T19:51:48.654Z,17.44
2018-05-23T19:54:14.907Z,17.41
2018-05-23T19:56:42.259Z,17.37
2018-05-23T19:59:08.629Z,17.29
2018-05-23T20:01:35.176Z,17.32
2018-05-23T20:04:03.238Z,17.23
2018-05-23T20:06:36.573Z,17.20
2018-05-23T20:09:04.491Z,17.20
2018-05-23T20:11:30.850Z,17.12
2018-05-23T20:13:57.240Z,16.94
2018-05-23T20:16:23.540Z,16.95
2018-05-23T20:18:50.290Z,17.02
2018-05-23T20:21:16.807Z,17.03
2018-05-23T20:23:43.090Z,16.97
2018-05-23T20:26:10.349Z,16.83
2018-05-23T20:28:36.677Z,16.86
2018-05-23T20:31:03.729Z,16.78
2018-05-23T20:33:30.768Z,16.73
2018-05-23T20:35:57.302Z,16.68
2018-05-23T20:38:23.617Z,16.63
2018-05-23T20:40:51.159Z,16.60
2018-05-23T20:43:17.477Z,16.54
2018-05-23T20:45:43.749Z,16.50
2018-05-23T20:48:10.026Z,16.54
2018-05-23T20:50:37.093Z,16.61
2018-05-23T20:53:04.144Z,16.52
2018-05-23T20:55:30.660Z,16.46
2018-05-23T20:57:57.718Z,16.49
2018-05-23T21:00:25.540Z,16.44
2018-05-23T21:02:52.601Z,16.42
2018-05-23T21:05:19.029Z,16.39
2018-05-23T21:07:45.185Z,16.45
2018-05-23T21:10:11.457Z,16.44
2018-05-23T21:12:37.730Z,16.37
2018-05-23T21:15:03.986Z,16.37
2018-05-23T21:17:30.253Z,16.34
2018-05-23T21:19:56.517Z,16.45
2018-05-23T21:22:26.076Z,16.50
2018-05-23T21:24:52.358Z,16.47
2018-05-23T21:27:18.562Z,16.39
2018-05-23T21:29:45.770Z,16.45
2018-05-23T21:32:12.057Z,16.39
2018-05-23T21:34:38.368Z,16.37
2018-05-23T21:37:05.381Z,16.37
2018-05-23T21:39:31.609Z,16.29
2018-05-23T21:41:58.623Z,16.25
2018-05-23T21:44:24.928Z,16.23
2018-05-23T21:46:51.225Z,16.20
2018-05-23T21:49:18.261Z,16.19
2018-05-23T21:51:44.533Z,16.31
2018-05-23T21:54:10.782Z,16.31
2018-05-23T21:56:37.010Z,16.25
2018-05-23T21:59:03.293Z,16.26
2018-05-23T22:01:29.568Z,16.18
2018-05-23T22:03:55.873Z,16.09
2018-05-23T22:06:22.185Z,16.08
2018-05-23T22:08:48.429Z,16.05
2018-05-23T22:11:14.709Z,16.01
2018-05-23T22:13:41.708Z,15.98
2018-05-23T22:16:07.986Z,15.99
2018-05-23T22:18:34.997Z,16.03
2018-05-23T22:21:01.269Z,16.04
2018-05-23T22:23:28.285Z,16.01
2018-05-23T22:25:54.541Z,16.00
2018-05-23T22:28:20.832Z,15.92
2018-05-23T22:30:47.065Z,15.88
2018-05-23T22:33:13.352Z,15.84
2018-05-23T22:35:39.600Z,15.81
2018-05-23T22:38:06.617Z,15.75
2018-05-23T22:40:32.849Z,15.77
2018-05-23T22:42:59.141Z,15.79
2018-05-23T22:45:25.438Z,15.74
2018-05-23T22:47:51.701Z,15.64
2018-05-23T22:50:18.710Z,15.65
2018-05-23T22:52:45.002Z,15.67
2018-05-23T22:55:11.273Z,15.68
2018-05-23T22:57:37.581Z,15.71
2018-05-23T23:00:03.877Z,15.72
2018-05-23T23:02:30.309Z,15.73
2018-05-23T23:04:56.598Z,15.75
2018-05-23T23:07:22.917Z,15.74
2018-05-23T23:09:49.973Z,15.70
2018-05-23T23:12:16.985Z,15.74
2018-05-23T23:14:43.281Z,15.73
2018-05-23T23:17:09.585Z,15.79
2018-05-23T23:19:36.631Z,15.76
2018-05-23T23:22:03.642Z,15.74
2018-05-23T23:24:29.916Z,15.67
2018-05-23T23:26:56.165Z,15.64
2018-05-23T23:29:23.168Z,15.68
2018-05-23T23:31:49.437Z,15.63
2018-05-23T23:34:15.729Z,15.60
2018-05-23T23:36:42.044Z,15.63
2018-05-23T23:39:08.293Z,15.58
2018-05-23T23:41:34.661Z,15.53
2018-05-23T23:44:00.889Z,15.48
2018-05-23T23:46:27.167Z,15.47
2018-05-23T23:48:54.251Z,15.40
2018-05-23T23:51:20.489Z,15.40
2018-05-23T23:53:46.791Z,15.38
2018-05-23T23:56:13.808Z,15.37
2018-05-23T23:58:40.045Z,15.46
